createdAt,value
2019-05-07T00:02:14.277Z,84.42
2019-05-07T00:04:43.946Z,84.43
2019-05-07T00:07:13.818Z,84.35
2019-05-07T00:09:43.521Z,84.42
2019-05-07T00:12:13.191Z,84.40
2019-05-07T00:14:51.656Z,84.43
2019-05-07T00:17:14.330Z,84.00
2019-05-07T00:19:44.009Z,84.09
2019-05-07T00:22:13.667Z,83.88
2019-05-07T00:24:43.377Z,83.92
2019-05-07T00:27:13.248Z,84.22
2019-05-07T00:29:43.106Z,84.15
2019-05-07T00:32:12.886Z,84.07
2019-05-07T00:34:44.208Z,84.04
2019-05-07T00:37:27.837Z,84.19
2019-05-07T00:40:02.781Z,84.23
2019-05-07T00:42:34.264Z,84.61
2019-05-07T00:45:17.006Z,84.68
2019-05-07T00:47:38.275Z,84.93
2019-05-07T00:50:09.731Z,85.00
2019-05-07T00:52:39.459Z,85.06
2019-05-07T00:55:09.205Z,85.14
2019-05-07T00:57:39.132Z,85.45
2019-05-07T01:00:09.778Z,85.52
2019-05-07T01:02:39.500Z,85.66
2019-05-07T01:05:09.523Z,85.96
2019-05-07T01:07:39.311Z,86.08
2019-05-07T01:10:09.623Z,86.27
2019-05-07T01:12:39.348Z,86.03
2019-05-07T01:15:09.278Z,86.26
2019-05-07T01:17:39.021Z,86.18
2019-05-07T01:20:08.776Z,86.37
2019-05-07T01:22:38.446Z,86.07
2019-05-07T01:25:09.055Z,86.12
2019-05-07T01:27:38.733Z,86.03
2019-05-07T01:30:08.933Z,85.80
2019-05-07T01:32:45.978Z,85.91
2019-05-07T01:35:25.869Z,86.18
2019-05-07T01:37:55.534Z,85.62
2019-05-07T01:40:25.294Z,85.83
2019-05-07T01:42:54.963Z,85.62
2019-05-07T01:45:25.125Z,86.00
2019-05-07T01:47:54.927Z,85.80
2019-05-07T01:50:24.611Z,86.11
2019-05-07T01:52:54.274Z,86.22
2019-05-07T01:55:23.952Z,86.59
2019-05-07T01:57:53.623Z,86.71
2019-05-07T02:00:23.378Z,86.57
2019-05-07T02:02:57.911Z,87.28
2019-05-07T02:05:29.258Z,87.11
2019-05-07T02:08:09.782Z,87.25
2019-05-07T02:10:47.221Z,87.11
2019-05-07T02:13:16.885Z,86.94
2019-05-07T02:15:57.262Z,86.21
2019-05-07T02:18:18.015Z,86.20
2019-05-07T02:20:47.709Z,85.69
2019-05-07T02:23:17.390Z,85.64
2019-05-07T02:25:47.083Z,85.72
2019-05-07T02:28:16.751Z,85.67
2019-05-07T02:30:46.424Z,85.68
2019-05-07T02:33:16.177Z,86.09
2019-05-07T02:35:45.840Z,86.50
2019-05-07T02:38:22.809Z,86.29
2019-05-07T02:40:53.604Z,86.29
2019-05-07T02:43:23.356Z,86.75
2019-05-07T02:46:21.566Z,86.63
2019-05-07T02:48:42.564Z,86.51
2019-05-07T02:51:15.425Z,86.56
2019-05-07T02:54:04.875Z,86.65
2019-05-07T02:56:34.554Z,86.78
2019-05-07T02:59:04.385Z,86.84
2019-05-07T03:01:34.050Z,86.22
2019-05-07T03:04:03.823Z,85.46
2019-05-07T03:06:34.225Z,85.35
2019-05-07T03:09:05.992Z,85.42
2019-05-07T03:11:35.850Z,85.12
2019-05-07T03:14:05.594Z,85.13
2019-05-07T03:16:43.514Z,85.45
2019-05-07T03:19:06.915Z,85.76
2019-05-07T03:21:55.289Z,86.03
2019-05-07T03:24:36.709Z,86.01
2019-05-07T03:27:06.472Z,85.81
2019-05-07T03:29:37.851Z,85.95
2019-05-07T03:32:09.182Z,85.77
2019-05-07T03:34:46.437Z,85.47
2019-05-07T03:37:16.439Z,84.22
2019-05-07T03:39:46.182Z,83.77
2019-05-07T03:42:15.921Z,83.56
2019-05-07T03:44:47.240Z,83.42
2019-05-07T03:47:18.555Z,83.42
2019-05-07T03:49:48.603Z,83.77
2019-05-07T03:52:18.440Z,83.81
2019-05-07T03:54:48.139Z,84.24
2019-05-07T03:57:17.814Z,84.69
2019-05-07T03:59:47.687Z,84.85
2019-05-07T04:02:17.341Z,85.04
2019-05-07T04:04:47.029Z,85.33
2019-05-07T04:07:16.723Z,85.20
2019-05-07T04:09:46.486Z,85.33
2019-05-07T04:12:16.153Z,85.16
2019-05-07T04:14:45.910Z,85.09
2019-05-07T04:17:22.217Z,84.75
2019-05-07T04:19:47.167Z,84.39
2019-05-07T04:22:18.655Z,84.02
2019-05-07T04:25:05.196Z,83.54
2019-05-07T04:27:52.704Z,83.06
2019-05-07T04:30:23.497Z,81.08
2019-05-07T04:32:55.120Z,77.62
2019-05-07T04:35:26.439Z,75.51
2019-05-07T04:37:56.142Z,75.29
2019-05-07T04:40:25.829Z,76.91
2019-05-07T04:42:55.502Z,78.02
2019-05-07T04:45:25.184Z,78.96
2019-05-07T04:47:54.851Z,79.69
2019-05-07T04:50:39.544Z,80.33
2019-05-07T04:53:03.164Z,79.40
2019-05-07T04:55:33.632Z,79.31
2019-05-07T04:58:08.266Z,78.90
2019-05-07T05:00:34.825Z,79.19
2019-05-07T05:03:18.257Z,78.52
2019-05-07T05:05:48.068Z,78.22
2019-05-07T05:08:26.478Z,77.21
2019-05-07T05:10:56.166Z,76.77
2019-05-07T05:13:25.848Z,78.30
2019-05-07T05:15:55.810Z,78.96
2019-05-07T05:18:25.655Z,79.35
2019-05-07T05:21:12.190Z,79.94
2019-05-07T05:23:46.195Z,80.89
2019-05-07T05:26:16.154Z,82.84
2019-05-07T05:28:45.883Z,83.17
2019-05-07T05:31:15.580Z,82.93
2019-05-07T05:33:45.246Z,82.28
2019-05-07T05:36:15.007Z,81.23
2019-05-07T05:38:44.809Z,81.85
2019-05-07T05:41:14.499Z,82.49
2019-05-07T05:43:52.714Z,83.69
2019-05-07T05:46:24.209Z,84.71
2019-05-07T05:48:53.902Z,85.57
2019-05-07T05:51:32.212Z,85.92
2019-05-07T05:54:03.735Z,85.50
2019-05-07T05:56:52.023Z,85.60
2019-05-07T05:59:48.118Z,84.07
2019-05-07T06:02:12.153Z,83.24
2019-05-07T06:04:43.765Z,82.76
2019-05-07T06:07:18.178Z,82.94
2019-05-07T06:09:49.657Z,82.70
2019-05-07T06:12:37.266Z,82.00
2019-05-07T06:15:09.658Z,82.30
2019-05-07T06:17:57.222Z,80.32
2019-05-07T06:20:44.975Z,76.58
2019-05-07T06:23:25.078Z,71.87
2019-05-07T06:25:54.774Z,67.69
2019-05-07T06:28:24.513Z,65.48
2019-05-07T06:30:54.209Z,64.56
2019-05-07T06:33:23.878Z,61.48
2019-05-07T06:35:53.689Z,63.20
2019-05-07T06:38:24.501Z,62.19
2019-05-07T06:41:02.667Z,62.06
2019-05-07T06:43:34.187Z,62.55
2019-05-07T06:46:05.160Z,62.82
2019-05-07T06:48:42.522Z,62.14
2019-05-07T06:51:06.293Z,61.94
2019-05-07T06:53:36.004Z,61.69
2019-05-07T06:56:05.812Z,62.19
2019-05-07T06:58:41.927Z,61.48
2019-05-07T07:01:25.421Z,62.06
2019-05-07T07:04:02.916Z,66.13
2019-05-07T07:06:49.426Z,68.38
2019-05-07T07:09:29.986Z,70.99
2019-05-07T07:12:02.081Z,69.54
2019-05-07T07:14:33.146Z,71.00
2019-05-07T07:17:03.046Z,71.03
2019-05-07T07:19:35.985Z,72.39
2019-05-07T07:22:04.618Z,72.44
2019-05-07T07:24:34.450Z,70.60
2019-05-07T07:27:04.380Z,70.60
2019-05-07T07:29:35.786Z,67.34
2019-05-07T07:32:07.225Z,67.34
2019-05-07T07:34:38.581Z,67.30
2019-05-07T07:37:15.166Z,66.63
2019-05-07T07:39:43.028Z,64.57
2019-05-07T07:42:12.794Z,66.02
2019-05-07T07:44:42.671Z,63.93
2019-05-07T07:47:13.051Z,63.34
2019-05-07T07:49:42.943Z,60.77
2019-05-07T07:52:12.631Z,62.74
2019-05-07T07:54:42.963Z,62.31
2019-05-07T07:57:32.439Z,60.51
2019-05-07T08:00:03.559Z,60.59
2019-05-07T08:02:34.885Z,59.36
2019-05-07T08:05:05.788Z,59.11
2019-05-07T08:07:35.701Z,60.14
2019-05-07T08:10:06.509Z,61.42
2019-05-07T08:12:36.432Z,62.78
2019-05-07T08:15:16.710Z,63.93
2019-05-07T08:17:41.772Z,65.18
2019-05-07T08:20:12.762Z,66.83
2019-05-07T08:22:42.833Z,66.60
2019-05-07T08:25:12.930Z,62.94
2019-05-07T08:27:42.917Z,63.43
2019-05-07T08:30:14.807Z,61.18
2019-05-07T08:32:58.669Z,59.47
2019-05-07T08:35:32.535Z,59.27
2019-05-07T08:38:02.316Z,53.60
2019-05-07T08:40:32.634Z,53.39
2019-05-07T08:43:03.225Z,53.20
2019-05-07T08:45:52.483Z,51.61
2019-05-07T08:48:33.574Z,52.42
2019-05-07T08:51:03.325Z,53.74
2019-05-07T08:53:33.092Z,56.28
2019-05-07T08:56:03.347Z,54.36
2019-05-07T08:58:33.349Z,53.28
2019-05-07T09:01:03.325Z,53.35
2019-05-07T09:03:45.188Z,52.93
2019-05-07T09:06:15.455Z,51.52
2019-05-07T09:08:45.210Z,51.64
2019-05-07T09:11:15.021Z,51.52
2019-05-07T09:13:44.785Z,51.89
2019-05-07T09:16:14.685Z,52.40
2019-05-07T09:18:44.500Z,52.65
2019-05-07T09:21:14.382Z,54.08
2019-05-07T09:23:44.205Z,54.93
2019-05-07T09:26:15.823Z,52.96
2019-05-07T09:28:56.093Z,54.06
2019-05-07T09:31:39.752Z,55.17
2019-05-07T09:34:11.682Z,55.26
2019-05-07T09:36:42.936Z,56.27
2019-05-07T09:39:12.804Z,59.50
2019-05-07T09:41:42.580Z,60.52
2019-05-07T09:44:12.398Z,61.10
2019-05-07T09:46:43.058Z,62.83
2019-05-07T09:49:13.759Z,63.40
2019-05-07T09:51:43.749Z,63.18
2019-05-07T09:54:13.554Z,65.04
2019-05-07T09:56:43.354Z,66.61
2019-05-07T09:59:13.163Z,67.69
2019-05-07T10:01:43.066Z,66.56
2019-05-07T10:04:12.998Z,64.30
2019-05-07T10:06:43.048Z,61.99
2019-05-07T10:09:12.911Z,59.21
2019-05-07T10:11:44.360Z,59.20
2019-05-07T10:14:14.209Z,57.52
2019-05-07T10:16:52.433Z,56.97
2019-05-07T10:19:22.339Z,56.32
2019-05-07T10:21:52.941Z,62.67
2019-05-07T10:24:23.109Z,71.73
2019-05-07T10:26:53.217Z,75.00
2019-05-07T10:29:23.184Z,76.72
2019-05-07T10:31:53.098Z,77.17
2019-05-07T10:34:22.973Z,76.78
2019-05-07T10:36:52.797Z,74.02
2019-05-07T10:39:22.538Z,70.64
2019-05-07T10:41:52.627Z,69.96
2019-05-07T10:44:24.116Z,68.94
2019-05-07T10:47:12.183Z,66.53
2019-05-07T10:49:49.389Z,64.07
2019-05-07T10:52:19.361Z,65.85
2019-05-07T10:54:59.462Z,62.89
2019-05-07T10:57:22.352Z,63.11
2019-05-07T10:59:52.464Z,64.82
2019-05-07T11:02:23.820Z,65.29
2019-05-07T11:04:53.591Z,66.89
2019-05-07T11:07:23.398Z,65.85
2019-05-07T11:09:53.139Z,64.72
2019-05-07T11:12:23.050Z,64.87
2019-05-07T11:14:52.876Z,62.11
2019-05-07T11:17:36.620Z,65.16
2019-05-07T11:20:08.023Z,60.90
2019-05-07T11:22:37.917Z,61.53
2019-05-07T11:25:08.129Z,59.96
2019-05-07T11:27:37.989Z,55.60
2019-05-07T11:30:08.774Z,55.92
2019-05-07T11:32:38.584Z,56.14
2019-05-07T11:35:08.791Z,56.22
2019-05-07T11:37:38.692Z,58.17
2019-05-07T11:40:09.856Z,59.90
2019-05-07T11:42:57.637Z,60.30
2019-05-07T11:45:32.245Z,57.46
2019-05-07T11:48:04.285Z,56.29
2019-05-07T11:50:59.670Z,55.96
2019-05-07T11:53:21.980Z,54.93
2019-05-07T11:55:52.425Z,57.14
2019-05-07T11:58:22.548Z,56.31
2019-05-07T12:00:58.425Z,53.29
2019-05-07T12:03:28.150Z,49.18
2019-05-07T12:05:59.531Z,47.75
2019-05-07T12:08:42.813Z,48.22
2019-05-07T12:11:04.475Z,47.15
2019-05-07T12:13:34.278Z,46.33
2019-05-07T12:16:04.110Z,47.79
2019-05-07T12:18:33.845Z,49.25
2019-05-07T12:21:16.710Z,49.15
2019-05-07T12:23:35.125Z,49.63
2019-05-07T12:26:05.040Z,49.78
2019-05-07T12:28:35.248Z,48.34
2019-05-07T12:31:06.875Z,48.57
2019-05-07T12:33:47.019Z,47.15
2019-05-07T12:36:16.889Z,49.32
2019-05-07T12:38:46.643Z,48.52
2019-05-07T12:41:33.679Z,50.39
2019-05-07T12:44:06.697Z,50.62
2019-05-07T12:46:37.189Z,49.40
2019-05-07T12:49:07.187Z,49.75
2019-05-07T12:51:38.669Z,51.37
2019-05-07T12:54:28.609Z,52.40
2019-05-07T12:56:58.411Z,52.04
2019-05-07T12:59:28.182Z,47.57
2019-05-07T13:02:21.815Z,42.11
2019-05-07T13:04:47.011Z,41.38
2019-05-07T13:07:25.308Z,42.11
2019-05-07T13:09:55.433Z,44.54
2019-05-07T13:12:25.156Z,44.58
2019-05-07T13:14:55.024Z,46.46
2019-05-07T13:17:24.831Z,46.40
2019-05-07T13:19:54.636Z,48.08
2019-05-07T13:22:24.371Z,46.38
2019-05-07T13:24:54.098Z,45.89
2019-05-07T13:27:24.093Z,50.75
2019-05-07T13:29:53.911Z,43.64
2019-05-07T13:32:26.568Z,43.96
2019-05-07T13:34:57.194Z,45.84
2019-05-07T13:37:28.612Z,43.35
2019-05-07T13:40:00.093Z,44.19
2019-05-07T13:42:32.102Z,44.75
2019-05-07T13:45:03.575Z,44.24
2019-05-07T13:47:35.624Z,42.24
2019-05-07T13:50:08.074Z,42.91
2019-05-07T13:55:43.359Z,40.65
2019-05-07T13:58:18.838Z,40.52
2019-05-07T14:01:05.422Z,40.99
2019-05-07T14:03:35.310Z,41.70
2019-05-07T14:06:05.193Z,38.30
2019-05-07T14:08:37.640Z,42.57
2019-05-07T14:11:07.626Z,40.75
2019-05-07T14:13:38.307Z,39.52
2019-05-07T14:16:12.801Z,42.67
2019-05-07T14:18:42.667Z,43.57
2019-05-07T14:21:13.035Z,44.82
2019-05-07T14:23:42.987Z,45.63
2019-05-07T14:26:12.970Z,45.68
2019-05-07T14:28:43.043Z,44.80
2019-05-07T14:31:12.929Z,45.69
2019-05-07T14:34:02.380Z,46.93
2019-05-07T14:36:50.450Z,46.98
2019-05-07T14:39:22.009Z,47.74
2019-05-07T14:41:53.518Z,48.01
2019-05-07T14:44:23.405Z,48.27
2019-05-07T14:46:54.386Z,47.58
2019-05-07T14:49:24.630Z,48.54
2019-05-07T14:51:54.710Z,48.00
2019-05-07T14:54:24.575Z,47.92
2019-05-07T14:56:54.360Z,46.36
2019-05-07T14:59:24.179Z,46.37
2019-05-07T15:01:54.031Z,46.02
2019-05-07T15:04:23.834Z,44.87
2019-05-07T15:06:53.656Z,43.86
2019-05-07T15:09:23.408Z,44.27
2019-05-07T15:11:53.169Z,46.15
2019-05-07T15:14:22.982Z,44.47
2019-05-07T15:16:54.712Z,45.85
2019-05-07T15:19:24.393Z,46.88
2019-05-07T15:21:55.879Z,45.17
2019-05-07T15:24:25.711Z,45.89
2019-05-07T15:26:56.721Z,44.95
2019-05-07T15:29:26.645Z,45.60
2019-05-07T15:31:58.094Z,44.04
2019-05-07T15:34:27.834Z,42.80
2019-05-07T15:36:57.595Z,42.03
2019-05-07T15:39:27.347Z,41.83
2019-05-07T15:41:57.117Z,40.74
2019-05-07T15:44:27.222Z,42.04
2019-05-07T15:46:58.672Z,43.63
2019-05-07T15:49:28.447Z,42.49
2019-05-07T15:52:01.774Z,40.84
2019-05-07T15:54:32.605Z,42.65
2019-05-07T15:57:03.990Z,42.84
2019-05-07T15:59:33.651Z,42.15
2019-05-07T16:02:12.343Z,42.55
2019-05-07T16:04:42.123Z,43.33
2019-05-07T16:07:13.277Z,43.54
2019-05-07T16:09:43.526Z,43.58
2019-05-07T16:12:14.854Z,43.61
2019-05-07T16:14:44.789Z,43.33
2019-05-07T16:17:24.981Z,45.75
2019-05-07T16:19:55.252Z,43.69
2019-05-07T16:22:26.627Z,42.78
2019-05-07T16:24:56.601Z,43.00
2019-05-07T16:27:26.264Z,43.64
2019-05-07T16:29:56.129Z,44.12
2019-05-07T16:32:25.883Z,43.59
2019-05-07T16:34:55.654Z,44.92
2019-05-07T16:37:25.423Z,43.87
2019-05-07T16:39:55.113Z,44.34
2019-05-07T16:42:24.816Z,44.88
2019-05-07T16:44:54.507Z,45.49
2019-05-07T16:47:24.214Z,45.94
2019-05-07T16:49:53.983Z,46.75
2019-05-07T16:52:23.699Z,45.80
2019-05-07T16:54:53.359Z,45.60
2019-05-07T16:57:27.659Z,46.24
2019-05-07T16:59:57.557Z,45.59
2019-05-07T17:02:28.983Z,46.67
2019-05-07T17:05:09.314Z,46.87
2019-05-07T17:07:43.540Z,47.56
2019-05-07T17:10:13.793Z,47.85
2019-05-07T17:12:45.229Z,48.58
2019-05-07T17:15:15.072Z,47.15
2019-05-07T17:17:44.840Z,48.65
2019-05-07T17:20:15.005Z,47.35
2019-05-07T17:22:47.477Z,46.71
2019-05-07T17:25:35.973Z,47.56
2019-05-07T17:28:07.131Z,48.18
2019-05-07T17:30:37.896Z,48.04
2019-05-07T17:33:07.748Z,48.88
2019-05-07T17:35:37.434Z,48.54
2019-05-07T17:38:09.824Z,48.30
2019-05-07T17:40:38.602Z,49.05
2019-05-07T17:43:08.370Z,49.52
2019-05-07T17:45:38.120Z,49.37
2019-05-07T17:48:07.935Z,50.19
2019-05-07T17:50:39.265Z,50.44
2019-05-07T17:53:08.935Z,51.49
2019-05-07T17:55:38.611Z,50.95
2019-05-07T17:58:08.368Z,51.43
2019-05-07T18:00:38.584Z,51.48
2019-05-07T18:03:09.964Z,52.46
2019-05-07T18:05:39.982Z,52.54
2019-05-07T18:08:09.633Z,52.72
2019-05-07T18:10:39.426Z,52.59
2019-05-07T18:13:09.200Z,53.57
2019-05-07T18:15:38.889Z,53.24
2019-05-07T18:18:12.849Z,53.55
2019-05-07T18:20:42.348Z,54.01
2019-05-07T18:23:16.804Z,53.44
2019-05-07T18:25:43.753Z,54.72
2019-05-07T18:28:16.028Z,54.37
2019-05-07T18:30:44.886Z,55.10
2019-05-07T18:33:16.226Z,55.26
2019-05-07T18:35:47.651Z,55.86
2019-05-07T18:38:17.317Z,55.12
2019-05-07T18:40:47.092Z,55.66
2019-05-07T18:43:16.822Z,55.71
2019-05-07T18:45:46.503Z,56.28
2019-05-07T18:48:16.207Z,57.14
2019-05-07T18:50:45.937Z,58.19
2019-05-07T18:53:15.633Z,58.63
2019-05-07T18:55:45.296Z,58.90
2019-05-07T18:58:15.165Z,59.38
2019-05-07T19:00:58.648Z,61.13
2019-05-07T19:03:28.432Z,62.04
2019-05-07T19:05:58.233Z,62.39
2019-05-07T19:08:35.607Z,62.88
2019-05-07T19:11:05.859Z,62.85
2019-05-07T19:13:35.794Z,63.46
2019-05-07T19:16:05.657Z,63.87
2019-05-07T19:18:35.431Z,64.50
2019-05-07T19:21:06.861Z,64.82
2019-05-07T19:23:36.837Z,65.62
2019-05-07T19:26:06.768Z,66.23
2019-05-07T19:28:36.632Z,67.39
2019-05-07T19:31:06.533Z,67.75
2019-05-07T19:33:36.454Z,68.02
2019-05-07T19:36:06.313Z,68.14
2019-05-07T19:38:36.455Z,68.62
2019-05-07T19:41:06.243Z,69.29
2019-05-07T19:43:36.475Z,69.07
2019-05-07T19:46:06.235Z,68.44
2019-05-07T19:48:36.169Z,68.95
2019-05-07T19:51:06.263Z,69.12
2019-05-07T19:53:36.080Z,68.96
2019-05-07T19:56:16.553Z,69.70
2019-05-07T19:58:46.522Z,70.38
2019-05-07T20:01:18.054Z,70.95
2019-05-07T20:03:49.096Z,71.64
2019-05-07T20:06:18.933Z,72.00
2019-05-07T20:08:48.657Z,72.33
2019-05-07T20:11:22.840Z,72.84
2019-05-07T20:13:52.577Z,72.26
2019-05-07T20:16:23.149Z,72.00
2019-05-07T20:18:52.969Z,72.12
2019-05-07T20:21:23.110Z,72.33
2019-05-07T20:23:52.897Z,72.69
2019-05-07T20:26:23.915Z,72.91
2019-05-07T20:28:53.652Z,73.40
2019-05-07T20:31:23.481Z,73.86
2019-05-07T20:33:53.399Z,74.45
2019-05-07T20:36:23.149Z,74.36
2019-05-07T20:38:52.999Z,74.70
2019-05-07T20:41:23.437Z,75.02
2019-05-07T20:43:53.248Z,74.53
2019-05-07T20:46:22.947Z,74.48
2019-05-07T20:48:52.752Z,73.82
2019-05-07T20:51:23.235Z,73.02
2019-05-07T20:53:57.243Z,72.40
2019-05-07T20:56:37.920Z,72.47
2019-05-07T20:59:07.739Z,72.97
2019-05-07T21:01:37.415Z,73.61
2019-05-07T21:04:07.231Z,73.96
2019-05-07T21:06:37.140Z,73.67
2019-05-07T21:09:08.556Z,73.93
2019-05-07T21:11:38.251Z,74.16
2019-05-07T21:14:07.938Z,74.63
2019-05-07T21:16:37.642Z,75.12
2019-05-07T21:19:07.310Z,74.74
2019-05-07T21:21:37.214Z,75.05
2019-05-07T21:24:07.026Z,74.33
2019-05-07T21:26:36.862Z,74.50
2019-05-07T21:29:06.522Z,74.44
2019-05-07T21:31:36.282Z,74.16
2019-05-07T21:34:06.021Z,74.32
2019-05-07T21:36:38.678Z,73.71
2019-05-07T21:39:08.489Z,72.96
2019-05-07T21:41:38.215Z,72.92
2019-05-07T21:44:07.873Z,72.95
2019-05-07T21:46:37.639Z,73.25
2019-05-07T21:49:07.303Z,73.32
2019-05-07T21:51:37.063Z,73.57
2019-05-07T21:54:23.692Z,74.09
2019-05-07T21:57:04.378Z,74.27
2019-05-07T21:59:35.940Z,74.44
2019-05-07T22:02:08.507Z,74.31
2019-05-07T22:04:38.170Z,74.01
2019-05-07T22:07:08.015Z,74.11
2019-05-07T22:09:37.765Z,74.28
2019-05-07T22:12:07.589Z,74.05
2019-05-07T22:14:37.266Z,73.88
2019-05-07T22:17:06.935Z,74.12
2019-05-07T22:19:36.620Z,74.66
2019-05-07T22:22:06.356Z,74.58
2019-05-07T22:24:36.138Z,74.22
2019-05-07T22:27:05.809Z,74.50
2019-05-07T22:29:35.509Z,74.39
2019-05-07T22:32:16.039Z,74.57
2019-05-07T22:34:47.383Z,74.85
2019-05-07T22:37:17.116Z,75.74
2019-05-07T22:39:46.911Z,74.32
2019-05-07T22:42:16.558Z,74.00
2019-05-07T22:44:46.310Z,73.40
2019-05-07T22:47:19.106Z,71.63
2019-05-07T22:49:53.482Z,71.32
2019-05-07T22:52:22.632Z,69.42
2019-05-07T22:54:52.410Z,69.78
2019-05-07T22:57:29.519Z,69.74
2019-05-07T22:59:59.263Z,69.80
2019-05-07T23:02:31.952Z,70.15
2019-05-07T23:05:02.866Z,72.07
2019-05-07T23:07:32.964Z,73.32
2019-05-07T23:10:03.021Z,73.98
2019-05-07T23:12:33.008Z,73.41
2019-05-07T23:15:02.902Z,73.83
2019-05-07T23:17:32.779Z,75.29
2019-05-07T23:20:02.757Z,76.11
2019-05-07T23:22:32.551Z,77.41
2019-05-07T23:25:02.357Z,76.84
2019-05-07T23:27:32.551Z,76.69
2019-05-07T23:30:02.754Z,77.07
2019-05-07T23:32:33.044Z,78.17
2019-05-07T23:35:02.988Z,79.09
2019-05-07T23:37:33.227Z,81.21
2019-05-07T23:40:14.171Z,80.51
2019-05-07T23:42:48.042Z,81.19
2019-05-07T23:45:17.799Z,80.70
2019-05-07T23:47:47.534Z,80.52
2019-05-07T23:50:17.468Z,80.79
2019-05-07T23:55:31.772Z,83.83
2019-05-07T23:58:03.108Z,83.72
